Time;durP1;ratioP1;P1;durP2;ratioP2;P2;SDS_P1;SDS_P2;PMS_P1;PMS_P2;Temp;Humidity;BMP_temperature;BMP_pressure;BME280_temperature;BME280_humidity;BME280_pressure;Samples;Min_cycle;Max_cycle;Signal;HPM_P1;HPM_P2
2019/05/28 04:02:28;;;;;;;18.6;16.9;;;;;;;13.82;97.3916;950.0083;;;;
2019/05/28 04:04:53;;;;;;;18.8;17.1;;;;;;;13.85;98.02441;950.0481;;;;
2019/05/28 04:07:19;;;;;;;20.7;18.5;;;;;;;13.79;98.3584;950.0469;;;;
2019/05/28 04:09:45;;;;;;;20.5;18.5;;;;;;;13.82;98.22656;950.0214;;;;
2019/05/28 04:12:11;;;;;;;21.7;19.7;;;;;;;13.79;98.04688;949.9897;;;;
2019/05/28 04:14:36;;;;;;;20.9;18.9;;;;;;;13.8;97.64355;949.9969;;;;
2019/05/28 04:17:02;;;;;;;21.4;19.4;;;;;;;13.75;97.86328;950.0161;;;;
2019/05/28 04:19:32;;;;;;;23.4;21.2;;;;;;;13.78;98.14941;949.9732;;;;
2019/05/28 04:21:58;;;;;;;21.4;19.3;;;;;;;13.79;97.39746;949.933;;;;
2019/05/28 04:24:23;;;;;;;21.6;19.4;;;;;;;13.75;97.9668;949.9416;;;;
2019/05/28 04:26:50;;;;;;;22.3;20.2;;;;;;;13.77;97.64844;949.9872;;;;
2019/05/28 04:29:15;;;;;;;23.4;21.2;;;;;;;13.83;98.33105;949.9771;;;;
2019/05/28 04:31:41;;;;;;;21.7;19.6;;;;;;;13.8;97.76855;949.9363;;;;
2019/05/28 04:34:06;;;;;;;22.1;20.1;;;;;;;13.77;97.50977;949.948;;;;
2019/05/28 04:36:31;;;;;;;22.8;20.6;;;;;;;13.74;97.98828;949.9263;;;;
2019/05/28 04:38:58;;;;;;;24.1;21.8;;;;;;;13.82;98.56348;949.9122;;;;
2019/05/28 04:41:23;;;;;;;23.8;21.5;;;;;;;13.86;98.30469;949.9211;;;;
2019/05/28 04:43:48;;;;;;;23.1;20.9;;;;;;;13.8;97.88672;949.8486;;;;
2019/05/28 04:46:14;;;;;;;24;21.6;;;;;;;13.8;98.48926;949.9182;;;;
2019/05/28 04:48:39;;;;;;;25.2;22.6;;;;;;;13.83;98.9707;949.9156;;;;
2019/05/28 04:51:04;;;;;;;22.7;20.5;;;;;;;13.81;98.0166;949.9131;;;;
2019/05/28 04:53:31;;;;;;;22.8;20.7;;;;;;;13.89;97.53516;949.8077;;;;
2019/05/28 04:55:56;;;;;;;23.6;21.3;;;;;;;13.95;97.69824;949.7883;;;;
2019/05/28 04:58:23;;;;;;;23.1;21;;;;;;;13.94;97.94238;949.8851;;;;
2019/05/28 05:00:48;;;;;;;24.6;22.3;;;;;;;13.92;97.83203;949.8616;;;;
2019/05/28 05:03:16;;;;;;;24.8;22.4;;;;;;;13.91;98.00586;949.8444;;;;
2019/05/28 05:05:41;;;;;;;23;20.9;;;;;;;13.85;97.50195;949.8825;;;;
2019/05/28 05:08:09;;;;;;;22.5;20.4;;;;;;;13.89;97.95117;949.9175;;;;
2019/05/28 05:10:34;;;;;;;22.6;20.5;;;;;;;13.93;97.5459;949.903;;;;
2019/05/28 05:12:59;;;;;;;21.7;19.6;;;;;;;13.92;96.41699;949.8475;;;;
2019/05/28 05:15:25;;;;;;;21.6;19.4;;;;;;;13.98;97.0918;949.8755;;;;
2019/05/28 05:17:50;;;;;;;21.3;19.3;;;;;;;14.03;97.21777;949.866;;;;
2019/05/28 05:20:17;;;;;;;19.6;17.7;;;;;;;13.89;96.02832;949.9297;;;;
2019/05/28 05:22:42;;;;;;;21.8;19.6;;;;;;;13.94;97.8125;949.9375;;;;
2019/05/28 05:25:08;;;;;;;22.7;20.5;;;;;;;13.93;97.38086;949.912;;;;
2019/05/28 05:27:33;;;;;;;19.7;17.8;;;;;;;13.95;96.44531;949.9578;;;;
2019/05/28 05:29:58;;;;;;;20.5;18.6;;;;;;;13.95;97.07227;949.9719;;;;
2019/05/28 05:32:26;;;;;;;20.7;18.7;;;;;;;14.02;97.21582;949.9456;;;;
2019/05/28 05:34:51;;;;;;;17.4;15.8;;;;;;;14.06;95.42773;949.9363;;;;
2019/05/28 05:37:18;;;;;;;19.7;17.9;;;;;;;14.15;97.12988;950.0441;;;;
2019/05/28 05:39:43;;;;;;;19.6;17.7;;;;;;;14.2;97.55762;949.9905;;;;
2019/05/28 05:42:10;;;;;;;17.6;15.9;;;;;;;14.08;94.93262;950.0392;;;;
2019/05/28 05:44:35;;;;;;;18;16.4;;;;;;;14.17;96.04297;950.0506;;;;
2019/05/28 05:47:01;;;;;;;16.7;15.1;;;;;;;14.04;95.0752;950.0519;;;;
2019/05/28 05:49:26;;;;;;;16.5;14.9;;;;;;;14.13;96.35938;950.1287;;;;
2019/05/28 05:51:51;;;;;;;16.2;14.7;;;;;;;14.19;96.63867;950.0964;;;;
2019/05/28 05:54:19;;;;;;;14.2;12.8;;;;;;;14.26;93.98438;950.1184;;;;
2019/05/28 05:56:44;;;;;;;13.5;12.2;;;;;;;14.22;95.2998;950.2057;;;;
2019/05/28 05:59:09;;;;;;;14.2;12.8;;;;;;;14.22;95.31152;950.1401;;;;
2019/05/28 06:01:34;;;;;;;11;9.9;;;;;;;14.1;92.69727;950.1334;;;;
2019/05/28 06:03:59;;;;;;;10.9;9.8;;;;;;;14.14;92.98438;950.1278;;;;
2019/05/28 06:06:24;;;;;;;10.3;9.3;;;;;;;14.09;93.72754;950.1777;;;;
2019/05/28 06:08:50;;;;;;;11.3;10.2;;;;;;;14.08;94.5957;950.1744;;;;
2019/05/28 06:11:15;;;;;;;7.8;7.1;;;;;;;14.05;93.87109;950.1649;;;;
2019/05/28 06:13:40;;;;;;;8;7.2;;;;;;;14.14;93.8418;950.1853;;;;
2019/05/28 06:16:06;;;;;;;8.7;7.1;;;;;;;14.07;93.3877;950.2277;;;;
2019/05/28 06:18:31;;;;;;;6.3;5.7;;;;;;;14.2;90.37305;950.2265;;;;
2019/05/28 06:20:56;;;;;;;6.7;6.1;;;;;;;14.18;91.82031;950.176;;;;
2019/05/28 06:23:21;;;;;;;6.1;5.6;;;;;;;14.13;91.2168;950.274;;;;
2019/05/28 06:25:46;;;;;;;6;5.2;;;;;;;14.2;92.00977;950.2961;;;;
2019/05/28 06:28:11;;;;;;;5.3;4.7;;;;;;;14.11;92.52637;950.2665;;;;
2019/05/28 06:30:36;;;;;;;5.4;4.8;;;;;;;14.21;92.95215;950.282;;;;
2019/05/28 06:33:01;;;;;;;5.5;4.6;;;;;;;14.15;91.82617;950.2795;;;;
2019/05/28 06:35:26;;;;;;;6.2;4.3;;;;;;;13.99;91.75586;950.2597;;;;
2019/05/28 06:37:51;;;;;;;5.2;4.7;;;;;;;14.04;92.625;950.3191;;;;
2019/05/28 06:40:17;;;;;;;4.6;4.2;;;;;;;14.17;92.53809;950.3038;;;;
2019/05/28 06:42:42;;;;;;;6.1;4.6;;;;;;;14.19;93.49121;950.3283;;;;
2019/05/28 06:45:07;;;;;;;5.6;5;;;;;;;14.16;93.53418;950.3572;;;;
2019/05/28 06:47:36;;;;;;;4.9;4.4;;;;;;;14.16;91.4668;950.3622;;;;
2019/05/28 06:50:01;;;;;;;5.4;4.4;;;;;;;14.04;91.84961;950.3141;;;;
2019/05/28 06:52:26;;;;;;;4.8;4.4;;;;;;;13.93;91.65137;950.3928;;;;
2019/05/28 06:54:51;;;;;;;5.5;5;;;;;;;13.64;93.50391;950.4045;;;;
2019/05/28 06:57:16;;;;;;;5.1;4.6;;;;;;;13.78;93.68555;950.3925;;;;
2019/05/28 06:59:41;;;;;;;5.2;4.7;;;;;;;13.81;93.54004;950.4111;;;;
2019/05/28 07:02:06;;;;;;;5.9;5;;;;;;;13.81;93.92285;950.3939;;;;
2019/05/28 07:04:32;;;;;;;5.6;4.7;;;;;;;13.79;93.79199;950.3475;;;;
2019/05/28 07:06:57;;;;;;;5.2;4.7;;;;;;;13.78;92.91992;950.4227;;;;
2019/05/28 07:09:22;;;;;;;6;4.9;;;;;;;13.76;94.03906;950.4606;;;;
2019/05/28 07:11:47;;;;;;;5.3;4.6;;;;;;;13.69;91.56543;950.4645;;;;
2019/05/28 07:14:12;;;;;;;6.1;5.1;;;;;;;13.58;91.63574;950.4727;;;;
2019/05/28 07:16:37;;;;;;;6.4;5.8;;;;;;;13.37;93.99023;950.3743;;;;
2019/05/28 07:19:03;;;;;;;6;5.4;;;;;;;13.47;94.37109;950.4105;;;;
2019/05/28 07:21:28;;;;;;;7.2;6.6;;;;;;;13.63;95.76172;950.4494;;;;
2019/05/28 07:23:54;;;;;;;8.3;7.5;;;;;;;13.65;94.1416;950.4387;;;;
2019/05/28 07:26:19;;;;;;;8.7;7.9;;;;;;;13.7;93.70117;950.4851;;;;
2019/05/28 07:28:44;;;;;;;10.4;9.5;;;;;;;13.51;94.69141;950.4938;;;;
2019/05/28 07:31:10;;;;;;;11;10;;;;;;;13.29;93.11621;950.5272;;;;
2019/05/28 07:33:35;;;;;;;13.4;12;;;;;;;13.19;93.75293;950.4644;;;;
2019/05/28 07:36:00;;;;;;;13.2;11.9;;;;;;;13.33;94.81445;950.4835;;;;
2019/05/28 07:38:25;;;;;;;12.1;11;;;;;;;13.32;93.74707;950.4894;;;;
2019/05/28 07:40:50;;;;;;;13.7;12.4;;;;;;;13.35;94.35547;950.5121;;;;
2019/05/28 07:43:16;;;;;;;15.1;13.8;;;;;;;13.29;94.33398;950.5312;;;;
2019/05/28 07:45:41;;;;;;;15.1;13.6;;;;;;;13.37;94.48828;950.5092;;;;
2019/05/28 07:48:07;;;;;;;15.3;13.7;;;;;;;13.31;94.20703;950.486;;;;
2019/05/28 07:50:32;;;;;;;17.1;15.5;;;;;;;13.3;94.33398;950.4689;;;;
2019/05/28 07:52:57;;;;;;;17.3;15.7;;;;;;;13.22;93.29785;950.5478;;;;
2019/05/28 07:55:22;;;;;;;17.4;15.8;;;;;;;13.32;93.28418;950.5417;;;;
2019/05/28 07:57:49;;;;;;;19.6;17.7;;;;;;;13.46;93.89355;950.5294;;;;
2019/05/28 08:00:14;;;;;;;20;18.2;;;;;;;13.46;93.8125;950.5555;;;;
2019/05/28 08:02:42;;;;;;;20.4;18.6;;;;;;;13.4;93.93848;950.5017;;;;
2019/05/28 08:05:07;;;;;;;21.2;19;;;;;;;13.47;92.58691;950.6121;;;;
2019/05/28 08:07:32;;;;;;;19.7;17.8;;;;;;;13.48;92.60059;950.6272;;;;
2019/05/28 08:09:57;;;;;;;16.5;14.9;;;;;;;13.17;87.91406;950.7411;;;;
2019/05/28 08:12:22;;;;;;;18.5;16.6;;;;;;;13.05;88.40918;950.6853;;;;
2019/05/28 08:14:47;;;;;;;17.9;16.1;;;;;;;;;;;;;
2019/05/28 08:17:16;;;;;;;14.7;13.3;;;;;;;;;;;;;
2019/05/28 08:19:40;;;;;;;15.8;14.1;;;;;;;;;;;;;
2019/05/28 08:22:06;;;;;;;17.2;15.3;;;;;;;;;;;;;
2019/05/28 08:24:31;;;;;;;15;13.4;;;;;;;;;;;;;
2019/05/28 08:26:57;;;;;;;15.7;14;;;;;;;;;;;;;
2019/05/28 08:29:22;;;;;;;14.7;13.3;;;;;;;;;;;;;
2019/05/28 08:31:47;;;;;;;14.3;12.7;;;;;;;;;;;;;
2019/05/28 08:34:12;;;;;;;14.1;12.7;;;;;;;;;;;;;
2019/05/28 08:36:37;;;;;;;13.4;12;;;;;;;;;;;;;
2019/05/28 08:39:03;;;;;;;12.4;11.2;;;;;;;;;;;;;
2019/05/28 08:41:28;;;;;;;14.2;12.7;;;;;;;;;;;;;
2019/05/28 08:43:53;;;;;;;15;13.5;;;;;;;;;;;;;
2019/05/28 08:46:18;;;;;;;14.5;13;;;;;;;;;;;;;
2019/05/28 08:48:43;;;;;;;12.7;11.2;;;;;;;;;;;;;
2019/05/28 08:51:08;;;;;;;11.5;10.4;;;;;;;;;;;;;
2019/05/28 08:53:33;;;;;;;12.8;11.5;;;;;;;;;;;;;
2019/05/28 08:55:59;;;;;;;12.2;10.9;;;;;;;;;;;;;
2019/05/28 08:58:24;;;;;;;10.1;9;;;;;;;;;;;;;
2019/05/28 09:00:49;;;;;;;8.6;7.7;;;;;;;;;;;;;
2019/05/28 09:03:14;;;;;;;7.9;7.1;;;;;;;;;;;;;
2019/05/28 09:05:39;;;;;;;8.3;7.2;;;;;;;;;;;;;
2019/05/28 09:08:04;;;;;;;6.9;6.2;;;;;;;;;;;;;
2019/05/28 09:10:30;;;;;;;8.3;7.2;;;;;;;;;;;;;
2019/05/28 09:12:55;;;;;;;6.9;6.2;;;;;;;;;;;;;
2019/05/28 09:15:20;;;;;;;6.6;5.7;;;;;;;;;;;;;
2019/05/28 09:17:46;;;;;;;7.7;5.7;;;;;;;;;;;;;
2019/05/28 09:20:12;;;;;;;6.1;5.2;;;;;;;;;;;;;
2019/05/28 09:22:38;;;;;;;5.4;4.8;;;;;;;;;;;;;
2019/05/28 09:25:03;;;;;;;5.9;4.9;;;;;;;;;;;;;
2019/05/28 09:27:28;;;;;;;9.2;8.3;;;;;;;;;;;;;
2019/05/28 09:29:53;;;;;;;6.9;5.1;;;;;;;;;;;;;
2019/05/28 09:32:18;;;;;;;6.4;5;;;;;;;;;;;;;
2019/05/28 09:34:43;;;;;;;5.2;4.7;;;;;;;;;;;;;
2019/05/28 09:37:08;;;;;;;5.9;4.8;;;;;;;;;;;;;
2019/05/28 09:39:33;;;;;;;6;4.9;;;;;;;;;;;;;
2019/05/28 09:41:58;;;;;;;5.6;5.1;;;;;;;;;;;;;
2019/05/28 09:44:24;;;;;;;6.2;5.6;;;;;;;;;;;;;
2019/05/28 09:46:49;;;;;;;6.4;5.9;;;;;;;;;;;;;
2019/05/28 09:49:14;;;;;;;6.6;5.6;;;;;;;;;;;;;
2019/05/28 09:51:40;;;;;;;6.6;5.7;;;;;;;;;;;;;
2019/05/28 09:54:05;;;;;;;7.2;6.1;;;;;;;;;;;;;
2019/05/28 09:56:30;;;;;;;7.2;6.5;;;;;;;;;;;;;
2019/05/28 09:58:55;;;;;;;6.5;5.9;;;;;;;;;;;;;
2019/05/28 10:01:20;;;;;;;6.6;5.3;;;;;;;;;;;;;
2019/05/28 10:03:45;;;;;;;5.8;5.2;;;;;;;;;;;;;
2019/05/28 10:06:10;;;;;;;6.8;5.7;;;;;;;;;;;;;
2019/05/28 10:08:36;;;;;;;6.2;5.5;;;;;;;;;;;;;
2019/05/28 10:11:01;;;;;;;5.9;5.3;;;;;;;;;;;;;
2019/05/28 10:13:27;;;;;;;5.7;5.2;;;;;;;;;;;;;
2019/05/28 10:15:52;;;;;;;6.1;5.5;;;;;;;;;;;;;
2019/05/28 10:18:17;;;;;;;5.9;5.1;;;;;;;;;;;;;
2019/05/28 10:20:42;;;;;;;5.8;5.2;;;;;;;;;;;;;
2019/05/28 10:23:07;;;;;;;7.3;5;;;;;;;;;;;;;
2019/05/28 10:25:32;;;;;;;5.6;4.8;;;;;;;;;;;;;
2019/05/28 10:27:58;;;;;;;6.2;5.3;;;;;;;;;;;;;
2019/05/28 10:30:23;;;;;;;4.7;4.3;;;;;;;;;;;;;
2019/05/28 10:32:48;;;;;;;5.8;4.7;;;;;;;;;;;;;
2019/05/28 10:35:13;;;;;;;4.7;4.3;;;;;;;;;;;;;
2019/05/28 10:37:38;;;;;;;4.7;4.1;;;;;;;;;;;;;
2019/05/28 10:40:03;;;;;;;5.3;4.8;;;;;;;;;;;;;
2019/05/28 10:42:29;;;;;;;6.1;4.7;;;;;;;;;;;;;
2019/05/28 10:44:54;;;;;;;5;4.5;;;;;;;;;;;;;
2019/05/28 10:47:19;;;;;;;4.5;3.9;;;;;;;;;;;;;
2019/05/28 10:49:44;;;;;;;5.1;4.5;;;;;;;;;;;;;
2019/05/28 10:52:09;;;;;;;5.5;4.5;;;;;;;;;;;;;
2019/05/28 10:54:34;;;;;;;5.3;4.8;;;;;;;;;;;;;
2019/05/28 10:56:59;;;;;;;5.5;4.6;;;;;;;;;;;;;
2019/05/28 10:59:24;;;;;;;4.6;4.2;;;;;;;;;;;;;
2019/05/28 11:01:49;;;;;;;5.9;4.5;;;;;;;;;;;;;
2019/05/28 11:04:14;;;;;;;5.7;5;;;;;;;;;;;;;
2019/05/28 11:06:40;;;;;;;5.3;4.8;;;;;;;;;;;;;
2019/05/28 11:09:05;;;;;;;7.7;5.8;;;;;;;;;;;;;
2019/05/28 11:11:30;;;;;;;5.4;4.9;;;;;;;;;;;;;
2019/05/28 11:13:55;;;;;;;5.6;5.1;;;;;;;;;;;;;
2019/05/28 11:16:20;;;;;;;6.1;4.7;;;;;;;;;;;;;
2019/05/28 11:18:45;;;;;;;6;5.4;;;;;;;;;;;;;
2019/05/28 11:21:10;;;;;;;6.8;5.6;;;;;;;;;;;;;
2019/05/28 11:23:36;;;;;;;6.3;5;;;;;;;;;;;;;
2019/05/28 11:26:01;;;;;;;6.9;5.5;;;;;;;;;;;;;
2019/05/28 11:28:26;;;;;;;6.3;5.5;;;;;;;;;;;;;
2019/05/28 11:30:52;;;;;;;6.3;5.6;;;;;;;;;;;;;
2019/05/28 11:33:17;;;;;;;7.6;6.4;;;;;;;;;;;;;
2019/05/28 11:35:42;;;;;;;8.4;6.6;;;;;;;;;;;;;
2019/05/28 11:38:07;;;;;;;7.1;6;;;;;;;;;;;;;
2019/05/28 11:40:32;;;;;;;7;6.3;;;;;;;;;;;;;
2019/05/28 11:42:57;;;;;;;7.4;6.7;;;;;;;;;;;;;
2019/05/28 11:45:22;;;;;;;7.4;6.7;;;;;;;;;;;;;
2019/05/28 11:47:48;;;;;;;7.6;6.8;;;;;;;;;;;;;
2019/05/28 11:50:13;;;;;;;7.2;6.5;;;;;;;;;;;;;
2019/05/28 11:52:38;;;;;;;5.8;4.8;;;;;;;;;;;;;
2019/05/28 11:55:03;;;;;;;3.5;3;;;;;;;;;;;;;
2019/05/28 11:57:28;;;;;;;5.3;3.9;;;;;;;;;;;;;
2019/05/28 11:59:53;;;;;;;6.4;5.8;;;;;;;;;;;;;
2019/05/28 12:02:18;;;;;;;7.4;6.7;;;;;;;;;;;;;
2019/05/28 12:04:43;;;;;;;7.3;6.5;;;;;;;;;;;;;
2019/05/28 12:07:08;;;;;;;8.8;7.9;;;;;;;;;;;;;
2019/05/28 12:09:33;;;;;;;8.1;7.3;;;;;;;;;;;;;
2019/05/28 12:11:58;;;;;;;8.1;7;;;;;;;;;;;;;
2019/05/28 12:14:24;;;;;;;8.1;6.9;;;;;;;;;;;;;
2019/05/28 12:16:49;;;;;;;7.1;6.4;;;;;;;;;;;;;
2019/05/28 12:19:14;;;;;;;6.4;5.8;;;;;;;;;;;;;
2019/05/28 12:21:39;;;;;;;7.3;6.2;;;;;;;;;;;;;
2019/05/28 12:24:04;;;;;;;6.1;5.5;;;;;;;;;;;;;
2019/05/28 12:26:29;;;;;;;7.3;6.6;;;;;;;;;;;;;
2019/05/28 12:28:55;;;;;;;7;6.3;;;;;;;;;;;;;
2019/05/28 12:31:20;;;;;;;7.4;6.1;;;;;;;;;;;;;
2019/05/28 12:33:46;;;;;;;8;7.2;;;;;;;;;;;;;
2019/05/28 12:36:11;;;;;;;7.3;6.5;;;;;;;;;;;;;
2019/05/28 12:38:37;;;;;;;8;6.2;;;;;;;;;;;;;
2019/05/28 12:41:05;;;;;;;7.9;7.2;;;;;;;;;;;;;
2019/05/28 12:43:31;;;;;;;7.2;6.5;;;;;;;;;;;;;
2019/05/28 12:45:56;;;;;;;9.8;7.5;;;;;;;;;;;;;
2019/05/28 12:48:21;;;;;;;7.4;6.4;;;;;;;;;;;;;
2019/05/28 12:50:46;;;;;;;7.7;6.9;;;;;;;;;;;;;
2019/05/28 12:53:11;;;;;;;7.6;6.9;;;;;;;;;;;;;
2019/05/28 12:55:36;;;;;;;21.7;16.8;;;;;;;;;;;;;
2019/05/28 12:58:01;;;;;;;20.8;16.4;;;;;;;;;;;;;
2019/05/28 13:00:26;;;;;;;9.2;8.1;;;;;;;;;;;;;
2019/05/28 13:02:51;;;;;;;9.6;8.3;;;;;;;;;;;;;
2019/05/28 13:05:17;;;;;;;9.7;8.7;;;;;;;;;;;;;
2019/05/28 13:07:42;;;;;;;10;9;;;;;;;;;;;;;
2019/05/28 13:10:07;;;;;;;11.3;9.1;;;;;;;;;;;;;
2019/05/28 13:12:32;;;;;;;8.4;7.6;;;;;;;;;;;;;
2019/05/28 13:14:57;;;;;;;8.7;7.1;;;;;;;;;;;;;
2019/05/28 13:17:22;;;;;;;8;7.2;;;;;;;;;;;;;
2019/05/28 13:19:47;;;;;;;7.1;6.3;;;;;;;;;;;;;
2019/05/28 13:22:12;;;;;;;7.5;6.6;;;;;;;;;;;;;
2019/05/28 13:24:38;;;;;;;7.6;6.3;;;;;;;;;;;;;
2019/05/28 13:27:03;;;;;;;5;4.2;;;;;;;;;;;;;
2019/05/28 13:29:29;;;;;;;5.3;4.4;;;;;;;;;;;;;
2019/05/28 13:31:54;;;;;;;5.6;4.2;;;;;;;;;;;;;
2019/05/28 13:34:19;;;;;;;4.4;3.4;;;;;;;;;;;;;
2019/05/28 13:36:44;;;;;;;5.6;3.7;;;;;;;;;;;;;
2019/05/28 13:39:10;;;;;;;4.8;3.7;;;;;;;;;;;;;
2019/05/28 13:41:35;;;;;;;5.3;3.1;;;;;;;;;;;;;
2019/05/28 13:44:00;;;;;;;5;3.5;;;;;;;;;;;;;
2019/05/28 13:46:33;;;;;;;5;3.3;;;;;;;;;;;;;
2019/05/28 13:48:58;;;;;;;5.9;3.7;;;;;;;;;;;;;
2019/05/28 13:51:23;;;;;;;5.3;3.2;;;;;;;;;;;;;
2019/05/28 13:53:48;;;;;;;5.8;3;;;;;;;;;;;;;
2019/05/28 13:56:13;;;;;;;3.9;2.6;;;;;;;;;;;;;
2019/05/28 13:58:38;;;;;;;4.7;2.7;;;;;;;;;;;;;
2019/05/28 14:01:03;;;;;;;4.1;2.8;;;;;;;;;;;;;
2019/05/28 14:03:28;;;;;;;4.4;3.1;;;;;;;;;;;;;
2019/05/28 14:05:53;;;;;;;5;2.6;;;;;;;;;;;;;
2019/05/28 14:08:18;;;;;;;4.4;2.8;;;;;;;;;;;;;
2019/05/28 14:10:44;;;;;;;4.8;2.6;;;;;;;;;;;;;
2019/05/28 14:13:09;;;;;;;4.3;2.6;;;;;;;;;;;;;
2019/05/28 14:15:34;;;;;;;4.4;2.7;;;;;;;;;;;;;
2019/05/28 14:17:59;;;;;;;4.8;2.7;;;;;;;;;;;;;
2019/05/28 14:20:31;;;;;;;4.5;2.3;;;;;;;;;;;;;
2019/05/28 14:22:49;;;;;;;6.2;3;;;;;;;;;;;;;
2019/05/28 14:25:15;;;;;;;4.7;2.8;;;;;;;;;;;;;
2019/05/28 14:27:40;;;;;;;5.1;2.8;;;;;;;;;;;;;
2019/05/28 14:30:06;;;;;;;5.1;3;;;;;;;;;;;;;
2019/05/28 14:32:31;;;;;;;5;3.1;;;;;;;;;;;;;
2019/05/28 14:34:56;;;;;;;4.5;3;;;;;;;;;;;;;
2019/05/28 14:37:21;;;;;;;5.7;3.4;;;;;;;;;;;;;
2019/05/28 14:39:46;;;;;;;4.9;3.1;;;;;;;;;;;;;
2019/05/28 14:42:11;;;;;;;4.4;2.9;;;;;;;;;;;;;
2019/05/28 14:44:36;;;;;;;3.9;2.9;;;;;;;;;;;;;
2019/05/28 14:47:01;;;;;;;3.6;2.4;;;;;;;;;;;;;
2019/05/28 14:49:26;;;;;;;6.2;2.8;;;;;;;;;;;;;
2019/05/28 14:51:51;;;;;;;3.9;2.9;;;;;;;;;;;;;
2019/05/28 14:54:16;;;;;;;5;2.9;;;;;;;;;;;;;
2019/05/28 14:56:42;;;;;;;4.3;2.5;;;;;;;;;;;;;
2019/05/28 14:59:07;;;;;;;5.1;2.3;;;;;;;;;;;;;
2019/05/28 15:01:33;;;;;;;5.1;2.3;;;;;;;;;;;;;
2019/05/28 15:04:00;;;;;;;4.2;2.4;;;;;;;;;;;;;
2019/05/28 15:06:25;;;;;;;4.2;2;;;;;;;;;;;;;
2019/05/28 15:08:50;;;;;;;3.7;2.1;;;;;;;;;;;;;
2019/05/28 15:11:26;;;;;;;5.6;2.4;;;;;;;;;;;;;
2019/05/28 15:14:01;;;;;;;4.3;2.3;;;;;;;;;;;;;
2019/05/28 15:16:22;;;;;;;3.6;1.9;;;;;;;;;;;;;
2019/05/28 15:18:47;;;;;;;4.3;1.8;;;;;;;;;;;;;
2019/05/28 15:21:12;;;;;;;3.4;1.8;;;;;;;;;;;;;
2019/05/28 15:23:37;;;;;;;4;2.1;;;;;;;;;;;;;
2019/05/28 15:26:02;;;;;;;4.6;2.2;;;;;;;;;;;;;
2019/05/28 15:28:27;;;;;;;3.6;1.8;;;;;;;;;;;;;
2019/05/28 15:30:54;;;;;;;4.6;2.2;;;;;;;;;;;;;
2019/05/28 15:33:20;;;;;;;4.9;2;;;;;;;;;;;;;
2019/05/28 15:35:45;;;;;;;4.4;2;;;;;;;;;;;;;
2019/05/28 15:38:10;;;;;;;4.9;2.1;;;;;;;;;;;;;
2019/05/28 15:40:35;;;;;;;4;1.9;;;;;;;;;;;;;
2019/05/28 15:43:00;;;;;;;6.7;1.9;;;;;;;;;;;;;
2019/05/28 15:45:25;;;;;;;5.3;1.9;;;;;;;;;;;;;
2019/05/28 15:47:50;;;;;;;3.5;1.7;;;;;;;;;;;;;
2019/05/28 15:50:15;;;;;;;3.7;1.5;;;;;;;;;;;;;
2019/05/28 15:52:40;;;;;;;3.9;1.8;;;;;;;;;;;;;
2019/05/28 15:55:09;;;;;;;4.1;1.7;;;;;;;;;;;;;
2019/05/28 15:57:32;;;;;;;4.2;1.5;;;;;;;;;;;;;
2019/05/28 15:59:57;;;;;;;3.8;1.8;;;;;;;;;;;;;
2019/05/28 16:02:22;;;;;;;3.4;1.8;;;;;;;;;;;;;
2019/05/28 16:04:47;;;;;;;3.3;1.5;;;;;;;;;;;;;
2019/05/28 16:07:13;;;;;;;4.1;1.6;;;;;;;;;;;;;
2019/05/28 16:09:38;;;;;;;3.4;1.6;;;;;;;;;;;;;
2019/05/28 16:12:12;;;;;;;3.9;1.7;;;;;;;;;;;;;
2019/05/28 16:14:37;;;;;;;2.9;1.3;;;;;;;;;;;;;
2019/05/28 16:17:09;;;;;;;3.4;1.6;;;;;;;;;;;;;
2019/05/28 16:19:34;;;;;;;4.6;2.1;;;;;;;;;;;;;
2019/05/28 16:22:01;;;;;;;15.6;10.3;;;;;;;;;;;;;
2019/05/28 16:24:26;;;;;;;2.5;1.4;;;;;;;;;;;;;
2019/05/28 16:26:51;;;;;;;3.6;1.6;;;;;;;;;;;;;
2019/05/28 16:29:16;;;;;;;3;1.4;;;;;;;;;;;;;
2019/05/28 16:31:41;;;;;;;3.7;1.6;;;;;;;;;;;;;
2019/05/28 16:34:12;;;;;;;3.2;1.6;;;;;;;;;;;;;
2019/05/28 16:36:38;;;;;;;3.7;1.7;;;;;;;;;;;;;
2019/05/28 16:39:04;;;;;;;4.5;2.1;;;;;;;;;;;;;
2019/05/28 16:41:29;;;;;;;3.5;1.7;;;;;;;;;;;;;
2019/05/28 16:43:54;;;;;;;4.2;1.9;;;;;;;;;;;;;
2019/05/28 16:46:19;;;;;;;4;1.4;;;;;;;;;;;;;
2019/05/28 16:48:44;;;;;;;2.8;1.3;;;;;;;;;;;;;
2019/05/28 16:51:09;;;;;;;3.2;1.3;;;;;;;;;;;;;
2019/05/28 16:53:34;;;;;;;5.1;1.8;;;;;;;;;;;;;
2019/05/28 16:55:59;;;;;;;4.5;1.7;;;;;;;;;;;;;
2019/05/28 16:58:31;;;;;;;4.2;1.7;;;;;;;;;;;;;
2019/05/28 17:01:02;;;;;;;4.2;1.6;;;;;;;;;;;;;
2019/05/28 17:03:28;;;;;;;4;1.6;;;;;;;;;;;;;
2019/05/28 17:05:53;;;;;;;3.4;1.6;;;;;;;;;;;;;
2019/05/28 17:08:18;;;;;;;4.3;1.6;;;;;;;;;;;;;
2019/05/28 17:10:44;;;;;;;7;3;;;;;;;;;;;;;
2019/05/28 17:13:09;;;;;;;4;1.8;;;;;;;;;;;;;
2019/05/28 17:15:34;;;;;;;4.2;1.6;;;;;;;;;;;;;
2019/05/28 17:18:01;;;;;;;8.7;3.4;;;;;;;;;;;;;
2019/05/28 17:20:26;;;;;;;9;3.4;;;;;;;;;;;;;
2019/05/28 17:22:51;;;;;;;8.4;3;;;;;;;;;;;;;
2019/05/28 17:25:17;;;;;;;4.9;2.1;;;;;;;;;;;;;
2019/05/28 17:27:42;;;;;;;5;2;;;;;;;;;;;;;
2019/05/28 17:30:16;;;;;;;4.6;2.3;;;;;;;;;;;;;
2019/05/28 17:32:41;;;;;;;5.9;2.3;;;;;;;;;;;;;
2019/05/28 17:35:06;;;;;;;5.4;2.2;;;;;;;;;;;;;
2019/05/28 17:37:33;;;;;;;5.7;1.9;;;;;;;;;;;;;
2019/05/28 17:39:59;;;;;;;3.9;2.4;;;;;;;;;;;;;
2019/05/28 17:42:32;;;;;;;4.7;2.1;;;;;;;;;;;;;
2019/05/28 17:44:50;;;;;;;5;3;;;;;;;;;;;;;
2019/05/28 17:47:30;;;;;;;4.6;2.7;;;;;;;;;;;;;
2019/05/28 17:49:55;;;;;;;5.6;2.3;;;;;;;;;;;;;
2019/05/28 17:52:20;;;;;;;5.7;2.5;;;;;;;;;;;;;
2019/05/28 17:54:47;;;;;;;3.9;2.2;;;;;;;;;;;;;
2019/05/28 17:57:13;;;;;;;4;2.4;;;;;;;;;;;;;
2019/05/28 17:59:42;;;;;;;4.3;2.7;;;;;;;;;;;;;
2019/05/28 18:02:08;;;;;;;3.7;2.6;;;;;;;;;;;;;
2019/05/28 18:04:33;;;;;;;5.2;2.5;;;;;;;;;;;;;
2019/05/28 18:06:58;;;;;;;3.8;2.3;;;;;;;;;;;;;
2019/05/28 18:09:23;;;;;;;4.2;2.2;;;;;;;;;;;;;
2019/05/28 18:11:48;;;;;;;3.5;2.3;;;;;;;;;;;;;
2019/05/28 18:14:13;;;;;;;4.1;2.7;;;;;;;;;;;;;
2019/05/28 18:16:39;;;;;;;4.8;2.5;;;;;;;;;;;;;
2019/05/28 18:19:04;;;;;;;5.4;2.9;;;;;;;;;;;;;
2019/05/28 18:21:29;;;;;;;4.8;2.8;;;;;;;;;;;;;
2019/05/28 18:23:54;;;;;;;9.2;6.1;;;;;;;;;;;;;
2019/05/28 18:26:19;;;;;;;6.5;5.1;;;;;;;;;;;;;
2019/05/28 18:28:44;;;;;;;5.2;3.4;;;;;;;;;;;;;
2019/05/28 18:31:12;;;;;;;5.7;3.1;;;;;;;;;;;;;
2019/05/28 18:33:37;;;;;;;6.6;3.5;;;;;;;;;;;;;
2019/05/28 18:36:03;;;;;;;5.8;4.5;;;;;;;;;;;;;
2019/05/28 18:38:28;;;;;;;5.2;3.6;;;;;;;;;;;;;
2019/05/28 18:40:54;;;;;;;5.9;3.6;;;;;;;;;;;;;
2019/05/28 18:43:18;;;;;;;5.7;3.4;;;;;;;;;;;;;
2019/05/28 18:45:43;;;;;;;4.3;3.1;;;;;;;;;;;;;
2019/05/28 18:48:08;;;;;;;3.9;3.1;;;;;;;;;;;;;
2019/05/28 18:50:33;;;;;;;5.6;3.1;;;;;;;;;;;;;
2019/05/28 18:53:08;;;;;;;7.2;3.7;;;;;;;;;;;;;
2019/05/28 18:55:33;;;;;;;4.5;3.3;;;;;;;;;;;;;
2019/05/28 18:57:58;;;;;;;4.5;2.8;;;;;;;;;;;;;
2019/05/28 19:00:23;;;;;;;5.1;3;;;;;;;;;;;;;
2019/05/28 19:02:48;;;;;;;4.8;3;;;;;;;;;;;;;
2019/05/28 19:05:14;;;;;;;4;2.5;;;;;;;;;;;;;
2019/05/28 19:07:39;;;;;;;4.3;2.4;;;;;;;;;;;;;
2019/05/28 19:10:08;;;;;;;3.5;2.7;;;;;;;;;;;;;
2019/05/28 19:12:33;;;;;;;3.3;2.4;;;;;;;;;;;;;
2019/05/28 19:14:58;;;;;;;3.9;3.5;;;;;;;;;;;;;
2019/05/28 19:17:24;;;;;;;6.1;3.1;;;;;;;;;;;;;
2019/05/28 19:19:49;;;;;;;3.7;2.6;;;;;;;;;;;;;
2019/05/28 19:22:14;;;;;;;3.6;2.4;;;;;;;;;;;;;
2019/05/28 19:24:39;;;;;;;4.2;2.6;;;;;;;;;;;;;
2019/05/28 19:27:13;;;;;;;3.7;2.1;;;;;;;;;;;;;
2019/05/28 19:29:33;;;;;;;3.5;2.5;;;;;;;;;;;;;
2019/05/28 19:31:56;;;;;;;4.7;2.3;;;;;;;;;;;;;
2019/05/28 19:34:22;;;;;;;5.2;4.1;;;;;;;;;;;;;
2019/05/28 19:36:48;;;;;;;5.1;3.1;;;;;;;;;;;;;
2019/05/28 19:39:12;;;;;;;3.5;2.8;;;;;;;;;;;;;
2019/05/28 19:41:39;;;;;;;3.8;2.7;;;;;;;;;;;;;
2019/05/28 19:44:05;;;;;;;3.7;2.7;;;;;;;;;;;;;
2019/05/28 19:46:30;;;;;;;4.4;2.3;;;;;;;;;;;;;
2019/05/28 19:49:05;;;;;;;3.9;2;;;;;;;;;;;;;
2019/05/28 19:51:29;;;;;;;4.6;2.1;;;;;;;;;;;;;
2019/05/28 19:53:54;;;;;;;3.7;1.9;;;;;;;;;;;;;
2019/05/28 19:56:38;;;;;;;3.7;2.2;;;;;;;;;;;;;
2019/05/28 19:59:00;;;;;;;3.6;1.7;;;;;;;;;;;;;
2019/05/28 20:01:25;;;;;;;3.5;1.7;;;;;;;;;;;;;
2019/05/28 20:03:50;;;;;;;3.8;2.1;;;;;;;;;;;;;
2019/05/28 20:06:19;;;;;;;3.5;2.6;;;;;;;;;;;;;
2019/05/28 20:08:44;;;;;;;2.6;1.7;;;;;;;;;;;;;
2019/05/28 20:11:10;;;;;;;3.7;1.9;;;;;;;;;;;;;
2019/05/28 20:13:35;;;;;;;3.9;2;;;;;;;;;;;;;
2019/05/28 20:16:06;;;;;;;4;2;;;;;;;;;;;;;
2019/05/28 20:18:25;;;;;;;3.5;1.8;;;;;;;;;;;;;
2019/05/28 20:20:53;;;;;;;2.5;1.8;;;;;;;;;;;;;
2019/05/28 20:23:18;;;;;;;2.9;1.9;;;;;;;;;;;;;
2019/05/28 20:25:47;;;;;;;2.6;2;;;;;;;;;;;;;
2019/05/28 20:28:12;;;;;;;3.4;2;;;;;;;;;;;;;
2019/05/28 20:30:37;;;;;;;3.4;2.3;;;;;;;;;;;;;
2019/05/28 20:33:02;;;;;;;2.7;1.7;;;;;;;;;;;;;
2019/05/28 20:35:27;;;;;;;4.5;1.9;;;;;;;;;;;;;
2019/05/28 20:37:52;;;;;;;3.8;1.9;;;;;;;;;;;;;
2019/05/28 20:40:17;;;;;;;4.1;1.8;;;;;;;;;;;;;
2019/05/28 20:42:42;;;;;;;3;1.6;;;;;;;;;;;;;
2019/05/28 20:45:07;;;;;;;4.7;1.9;;;;;;;;;;;;;
2019/05/28 20:47:32;;;;;;;4.1;1.7;;;;;;;;;;;;;
2019/05/28 20:49:58;;;;;;;3.5;1.8;;;;;;;;;;;;;
2019/05/28 20:52:28;;;;;;;3.7;2.1;;;;;;;;;;;;;
2019/05/28 20:54:57;;;;;;;3.4;1.6;;;;;;;;;;;;;
2019/05/28 20:57:22;;;;;;;3;1.5;;;;;;;;;;;;;
2019/05/28 20:59:47;;;;;;;5.5;1.8;;;;;;;;;;;;;
2019/05/28 21:02:15;;;;;;;4.5;1.6;;;;;;;;;;;;;
2019/05/28 21:04:44;;;;;;;3.3;1.5;;;;;;;;;;;;;
2019/05/28 21:07:10;;;;;;;4.7;1.6;;;;;;;;;;;;;
2019/05/28 21:09:38;;;;;;;4.6;1.7;;;;;;;;;;;;;
2019/05/28 21:12:05;;;;;;;3.9;1.5;;;;;;;;;;;;;
2019/05/28 21:14:38;;;;;;;4;1.8;;;;;;;;;;;;;
2019/05/28 21:17:06;;;;;;;3;1.5;;;;;;;;;;;;;
2019/05/28 21:19:31;;;;;;;2.8;1.5;;;;;;;;;;;;;
2019/05/28 21:21:59;;;;;;;2.7;1.4;;;;;;;;;;;;;
2019/05/28 21:24:25;;;;;;;3;1.4;;;;;;;;;;;;;
2019/05/28 21:26:53;;;;;;;3.5;1.5;;;;;;;;;;;;;
2019/05/28 21:29:18;;;;;;;2.9;1.6;;;;;;;;;;;;;
2019/05/28 21:31:43;;;;;;;4;1.5;;;;;;;;;;;;;
2019/05/28 21:34:09;;;;;;;2.4;1.6;;;;;;;;;;;;;
2019/05/28 21:36:34;;;;;;;4.3;1.7;;;;;;;;;;;;;
2019/05/28 21:39:01;;;;;;;4.2;2.2;;;;;;;;;;;;;
2019/05/28 21:41:26;;;;;;;5.6;2;;;;;;;;;;;;;
2019/05/28 21:43:51;;;;;;;6.7;3.5;;;;;;;;;;;;;
2019/05/28 21:46:17;;;;;;;5.3;2;;;;;;;;;;;;;
2019/05/28 21:48:42;;;;;;;4.1;2.2;;;;;;;;;;;;;
2019/05/28 21:51:07;;;;;;;3.3;2.1;;;;;;;;;;;;;
2019/05/28 21:53:33;;;;;;;5.1;2.7;;;;;;;;;;;;;
2019/05/28 21:55:59;;;;;;;3.3;2.3;;;;;;;;;;;;;
2019/05/28 21:58:24;;;;;;;4.5;3.2;;;;;;;;;;;;;
2019/05/28 22:00:49;;;;;;;4.3;2.6;;;;;;;;;;;;;
2019/05/28 22:03:14;;;;;;;3.7;2;;;;;;;;;;;;;
2019/05/28 22:05:42;;;;;;;4.6;2.5;;;;;;;;;;;;;
2019/05/28 22:08:06;;;;;;;6.2;3.3;;;;;;;;;;;;;
2019/05/28 22:10:31;;;;;;;5.7;3.3;;;;;;;;;;;;;
2019/05/28 22:12:56;;;;;;;5;3.1;;;;;;;;;;;;;
2019/05/28 22:15:21;;;;;;;4.9;2.9;;;;;;;;;;;;;
2019/05/28 22:17:46;;;;;;;5.1;3.5;;;;;;;;;;;;;
2019/05/28 22:20:11;;;;;;;5.5;2.7;;;;;;;;;;;;;
2019/05/28 22:22:36;;;;;;;6.5;4.6;;;;;;;;;;;;;
2019/05/28 22:25:01;;;;;;;4.9;2.5;;;;;;;;;;;;;
2019/05/28 22:27:27;;;;;;;5.2;4.6;;;;;;;;;;;;;
2019/05/28 22:29:52;;;;;;;4.7;3.3;;;;;;;;;;;;;
2019/05/28 22:32:17;;;;;;;5.6;3.2;;;;;;;;;;;;;
2019/05/28 22:34:42;;;;;;;5.5;3.4;;;;;;;;;;;;;
2019/05/28 22:37:07;;;;;;;4.9;3.3;;;;;;;;;;;;;